Latest Weather Observations for Cleve Airport

IDS60801

Issued at 9:01 am CDT Saturday 10 December 2022 (issued every 10 minutes, with the page automatically refreshed every 10 minutes)

About weather observations | Map of weather stations | Latest weather observations for SA | Other Formats
Station Details ID: 018116 Name: CLEVE AERODROME Lat: -33.71 Lon: 136.50 Height: 175.0 m
Data from the previous 72 hours. | See also: Recent months at Cleve Airport
Date/Time
CDT
Temp
°C
App
Temp
°C
Dew
Point
°C
Rel
Hum
%
Delta-T
°C
Wind Press
QNH
hPa
Press
MSL
hPa
Rain since
9am
mm
Dir  Spd
km/h
Gust
km/h
Spd
kts
Gust
kts
10/09:00am 27.9 18.0 2.9 20 12.5 N 44 57 24 31 1007.4 1006.7 0.0
10/08:30am 26.8 15.7 2.7 21 11.9 N 50 69 27 37 1007.5 1006.9 0.0
10/08:00am 25.2 14.1 2.6 23 11.0 N 50 69 27 37 1007.2 1006.5 0.0
10/07:31am 23.6 13.7 3.0 26 10.0 N 44 67 24 36 1007.3 1006.6 0.0
10/07:30am 23.6 13.7 3.0 26 10.0 N 44 61 24 33 1007.3 1006.6 0.0
10/07:14am 23.7 13.9 3.1 26 10.0 N 44 63 24 34 1007.3 1006.6 0.0
10/07:00am 23.4 12.4 2.8 26 10.0 N 50 67 27 36 1007.2 1006.5 0.0
10/06:30am 22.6 13.3 3.2 28 9.4 N 41 61 22 33 1007.2 1006.5 0.0
10/06:15am 22.6 13.4 3.7 29 9.2 N 41 59 22 32 1007.5 1006.9 0.0
10/06:00am 22.7 13.5 3.3 28 9.4 N 41 54 22 29 1007.6 1007.0 0.0
10/05:30am 23.0 13.5 4.0 29 9.4 N 43 59 23 32 1007.6 1007.0 0.0
10/05:01am 23.2 15.4 4.7 30 9.2 N 35 54 19 29 1007.9 1007.3 0.0
10/05:00am 23.1 15.6 4.6 30 9.2 N 33 44 18 24 1008.0 1007.4 0.0
10/04:30am 23.2 15.5 5.2 31 9.1 NNE 35 44 19 24 1008.2 1007.6 0.0
10/04:00am 23.4 16.3 6.2 33 8.9 NNE 33 44 18 24 1008.3 1007.7 0.0
10/03:30am 23.9 17.1 6.7 33 9.0 NNE 32 44 17 24 1008.3 1007.7 0.0
10/03:00am 23.1 18.1 6.4 34 8.6 NE 22 33 12 18 1008.6 1008.0 0.0
10/02:30am 22.0 17.0 6.3 36 8.0 ENE 22 30 12 16 1008.7 1008.1 0.0
10/02:00am 18.6 15.6 5.8 43 6.3 ESE 11 13 6 7 1009.1 1008.5 0.0
10/01:30am 19.2 16.3 6.3 43 6.5 ESE 11 19 6 10 1009.3 1008.7 0.0
10/01:00am 18.3 15.6 5.8 44 6.2 ESE 9 13 5 7 1009.6 1009.0 0.0
10/12:30am 18.1 14.8 6.3 46 5.9 ESE 13 19 7 10 1010.0 1009.4 0.0
10/12:00am 17.7 15.0 5.6 45 5.9 ESE 9 13 5 7 1010.5 1009.9 0.0
 
Date/Time
CDT
Temp
°C
App
Temp
°C
Dew
Point
°C
Rel
Hum
%
Delta-T
°C
Wind Press
QNH
hPa
Press
MSL
hPa
Rain since
9am
mm
Dir  Spd
km/h
Gust
km/h
Spd
kts
Gust
kts
09/11:30pm 17.5 14.8 5.4 45 5.9 E 9 13 5 7 1010.7 1010.1 0.0
09/11:00pm 18.0 14.7 6.2 46 5.9 ESE 13 17 7 9 1010.9 1010.3 0.0
09/10:30pm 19.7 16.5 5.0 38 7.2 ESE 11 13 6 7 1011.0 1010.4 0.0
09/10:00pm 20.1 16.4 4.6 36 7.6 E 13 15 7 8 1010.9 1010.3 0.0
09/09:30pm 20.5 16.4 4.1 34 8.0 E 15 19 8 10 1010.9 1010.3 0.0
09/09:00pm 21.0 16.1 4.1 33 8.2 E 19 22 10 12 1010.8 1010.2 0.0
09/08:30pm 22.3 16.9 4.4 31 8.9 E 22 28 12 15 1010.8 1010.2 0.0
09/08:00pm 23.7 18.9 4.6 29 9.6 E 19 28 10 15 1010.7 1010.1 0.0
09/07:30pm 24.6 18.1 4.9 28 10.0 E 28 35 15 19 1010.4 1009.8 0.0
09/07:00pm 25.5 18.4 6.2 29 10.1 E 33 41 18 22 1010.2 1009.6 0.0
09/06:30pm 26.4 19.5 6.4 28 10.5 E 32 39 17 21 1010.0 1009.4 0.0
09/06:00pm 27.5 21.0 6.3 26 11.2 ESE 30 39 16 21 1009.9 1009.3 0.0
09/05:30pm 27.5 21.4 6.8 27 11.0 ESE 28 37 15 20 1010.0 1009.4 0.0
09/05:00pm 28.2 21.8 6.9 26 11.4 ESE 30 39 16 21 1010.1 1009.5 0.0
09/04:30pm 27.8 21.7 6.6 26 11.3 ESE 28 39 15 21 1010.4 1009.8 0.0
09/04:00pm 28.0 21.2 6.7 26 11.4 ESE 32 41 17 22 1010.6 1010.0 0.0
09/03:30pm 27.8 21.0 7.1 27 11.1 ESE 32 41 17 22 1010.9 1010.3 0.0
09/03:00pm 28.5 22.0 8.2 28 11.2 SE 32 39 17 21 1011.1 1010.5 0.0
09/02:43pm 28.6 22.9 8.3 28 11.2 ESE 28 41 15 22 1011.3 1010.7 0.0
09/02:30pm 28.9 25.7 6.9 25 11.8 NE 13 20 7 11 1011.5 1010.9 0.0
09/02:00pm 27.8 24.7 5.4 24 11.7 WNW 11 22 6 12 1012.3 1011.6 0.0
09/01:30pm 27.4 24.6 6.8 27 11.0 ENE 11 22 6 12 1012.7 1012.1 0.0
09/01:00pm 26.2 23.3 6.3 28 10.4 NE 11 19 6 10 1013.0 1012.4 0.0
09/12:30pm 25.2 22.0 6.9 31 9.6 NW 13 22 7 12 1013.3 1012.7 0.0
09/12:00pm 24.1 20.4 6.4 32 9.2 N 15 24 8 13 1013.7 1013.1 0.0
09/11:30am 23.2 19.0 5.6 32 8.9 N 17 24 9 13 1013.8 1013.2 0.0
09/11:00am 21.9 19.4 9.8 46 6.6 ENE 13 22 7 12 1014.5 1013.9 0.0
09/10:30am 21.2 18.0 9.8 48 6.2 ENE 17 22 9 12 1015.1 1014.5 0.0
09/10:00am 18.5 15.2 10.8 61 4.2 E 19 24 10 13 1015.2 1014.6 0.0
09/09:30am 19.0 16.0 12.0 64 3.9 E 19 26 10 14 1015.4 1014.8 0.0
09/09:00am 16.6 13.2 11.1 70 3.0 E 20 28 11 15 1015.5 1014.9 0.4
09/08:30am 15.9 13.7 12.1 78 2.1 E 15 20 8 11 1015.7 1015.1 0.4
09/08:00am 14.6 11.8 11.4 81 1.7 E 17 24 9 13 1015.7 1015.1 0.4
09/07:30am 14.2 13.1 11.9 86 1.2 E 9 15 5 8 1016.4 1015.8 0.4
09/07:00am 13.7 11.5 10.9 83 1.5 SE 13 15 7 8 1016.2 1015.6 0.2
09/06:30am 14.6 12.0 9.2 70 2.8 SSE 13 19 7 10 1015.9 1015.3 0.0
09/06:25am 14.7 12.0 9.1 69 2.9 ESE 13 17 7 9 1015.3 1014.7 0.0
09/06:00am 14.5 10.6 8.7 68 3.0 E 19 24 10 13 1013.2 1012.6 0.0
09/05:30am 14.5 11.0 8.7 68 3.0 E 17 20 9 11 1013.2 1012.6 0.0
09/05:00am 14.5 11.4 8.7 68 3.0 E 15 19 8 10 1013.2 1012.6 0.0
09/04:30am 14.3 10.3 8.3 67 3.0 E 19 24 10 13 1013.1 1012.5 0.0
09/04:00am 14.3 9.7 8.3 67 3.0 E 22 32 12 17 1012.9 1012.3 0.0
09/03:30am 14.0 10.0 9.0 72 2.6 ENE 20 28 11 15 1013.0 1012.4 0.0
09/03:00am 13.8 10.3 10.2 79 1.9 E 19 24 10 13 1013.3 1012.7 0.0
09/02:30am 13.7 9.2 10.1 79 1.9 E 24 30 13 16 1013.1 1012.5 0.0
09/02:00am 13.7 9.2 10.1 79 1.9 ENE 24 32 13 17 1013.3 1012.7 0.0
09/01:30am 13.6 9.1 10.2 80 1.8 E 24 28 13 15 1015.1 1014.5 0.0
09/01:00am 14.6 10.8 9.2 70 2.8 E 19 26 10 14 1017.0 1016.4 0.0
09/12:30am 14.7 9.1 8.9 68 3.0 E 28 33 15 18 1016.8 1016.2 0.0
09/12:00am 15.0 10.5 8.7 66 3.2 E 22 32 12 17 1016.6 1016.0 0.0
 
Date/Time
CDT
Temp
°C
App
Temp
°C
Dew
Point
°C
Rel
Hum
%
Delta-T
°C
Wind Press
QNH
hPa
Press
MSL
hPa
Rain since
9am
mm
Dir  Spd
km/h
Gust
km/h
Spd
kts
Gust
kts
08/11:30pm 15.0 10.7 8.0 63 3.5 E 20 24 11 13 1017.1 1016.5 0.0
08/11:00pm 14.9 10.6 7.7 62 3.6 ESE 20 24 11 13 1017.2 1016.6 0.0
08/10:30pm 15.0 10.9 7.8 62 3.6 ESE 19 24 10 13 1017.1 1016.5 0.0
08/10:00pm 13.7 10.9 7.0 64 3.3 E 11 15 6 8 1017.3 1016.8 0.0
08/09:30pm 14.6 11.1 7.2 61 3.7 ESE 15 19 8 10 1017.2 1016.6 0.0
08/09:00pm 14.5 11.2 6.6 59 3.9 ESE 13 17 7 9 1017.3 1016.8 0.0
08/08:30pm 14.9 11.1 7.5 61 3.7 SE 17 22 9 12 1017.1 1016.5 0.0
08/08:00pm 15.4 11.5 7.2 58 4.1 SE 17 22 9 12 1017.3 1016.8 0.0
08/07:30pm 16.0 11.6 6.7 54 4.6 SE 19 26 10 14 1017.6 1017.1 0.0
08/07:00pm 17.4 13.0 7.2 51 5.1 SE 20 28 11 15 1017.2 1016.6 0.0
08/06:30pm 17.2 11.7 6.1 48 5.5 SE 24 32 13 17 1016.8 1016.2 0.0
08/06:00pm 18.1 12.2 6.0 45 6.0 SE 26 35 14 19 1015.9 1015.3 0.0
08/05:30pm 18.9 13.0 5.7 42 6.5 SE 26 39 14 21 1016.1 1015.5 0.0
08/05:00pm 18.9 13.2 5.0 40 6.8 ESE 24 37 13 20 1016.3 1015.7 0.0
08/04:30pm 18.6 13.3 5.1 41 6.6 SE 22 33 12 18 1016.9 1016.3 0.0
08/04:00pm 19.4 14.0 4.7 38 7.2 SE 22 41 12 22 1017.0 1016.4 0.0
08/03:30pm 20.1 14.3 6.1 40 7.0 ESE 26 44 14 24 1016.9 1016.3 0.0
08/03:00pm 18.5 13.4 3.9 38 6.9 ESE 20 35 11 19 1017.5 1017.0 0.0
08/02:30pm 18.7 12.5 4.5 39 6.8 ESE 26 39 14 21 1017.3 1016.8 0.0
08/02:00pm 18.9 12.9 3.5 36 7.3 SE 24 41 13 22 1017.6 1017.1 0.0
08/01:30pm 17.9 11.2 3.8 39 6.7 ESE 28 43 15 23 1018.3 1017.7 0.0
08/01:00pm 18.4 12.3 4.6 40 6.7 ESE 26 39 14 21 1018.6 1018.0 0.0
08/12:42pm 18.5 12.1 5.4 42 6.4 ESE 28 46 15 25 1018.7 1018.1 0.0
08/12:30pm 18.3 12.7 5.5 43 6.3 ESE 24 39 13 21 1018.8 1018.2 0.0
08/12:00pm 17.3 12.4 4.9 44 6.0 ESE 20 35 11 19 1019.4 1018.8 0.0
08/11:30am 17.0 11.6 4.3 43 6.0 ESE 22 35 12 19 1019.5 1018.9 0.0
08/11:00am 16.5 10.9 5.5 48 5.3 SE 24 33 13 18 1019.2 1018.6 0.0
08/10:30am 17.5 11.6 5.8 46 5.7 SE 26 37 14 20 1019.2 1018.6 0.0
08/10:00am 15.7 10.2 5.9 52 4.8 SE 24 32 13 17 1019.6 1019.0 0.0
08/09:30am 14.6 9.0 5.4 54 4.4 ESE 24 30 13 16 1019.7 1019.1 0.0
08/09:00am 14.4 9.5 5.2 54 4.3 ESE 20 28 11 15 1019.6 1019.0 0.0
08/08:30am 13.9 8.2 5.0 55 4.2 ESE 24 28 13 15 1019.5 1018.9 0.0
08/08:00am 13.3 8.3 4.7 56 4.0 ESE 20 30 11 16 1019.2 1018.6 0.0
08/07:30am 10.7 9.4 4.2 64 2.9 CALM 0 0 0 0 1019.0 1018.4 0.0
08/07:00am 9.3 6.9 4.1 70 2.3 E 6 7 3 4 1018.6 1018.0 0.0
08/06:30am 7.9 6.1 3.2 72 2.0 E 2 7 1 4 1018.2 1017.6 0.0
08/06:00am 7.5 4.7 3.4 75 1.8 ESE 7 9 4 5 1018.2 1017.6 0.0
08/05:30am 8.6 6.4 3.6 71 2.2 SE 4 6 2 3 1017.8 1017.3 0.0
08/05:00am 9.1 5.3 3.7 69 2.4 SE 13 17 7 9 1017.5 1017.0 0.0
08/04:30am 9.7 5.5 3.9 67 2.6 SE 15 19 8 10 1017.2 1016.6 0.0
08/04:00am 11.0 6.5 4.0 62 3.1 SE 17 22 9 12 1017.4 1016.9 0.0
08/03:30am 11.5 7.1 4.5 62 3.2 SE 17 22 9 12 1017.3 1016.8 0.0
08/03:00am 10.7 6.2 4.0 63 3.0 SE 17 20 9 11 1017.4 1016.9 0.0
08/02:30am 11.5 6.6 4.0 60 3.4 SE 19 24 10 13 1017.6 1017.1 0.0
08/02:00am 11.8 8.5 4.8 62 3.2 SSE 11 15 6 8 1017.8 1017.3 0.0
08/01:30am 10.5 6.7 4.0 64 2.9 SSE 13 17 7 9 1018.2 1017.6 0.0
08/01:00am 11.1 7.0 4.6 64 3.0 SSE 15 17 8 9 1018.1 1017.5 0.0
08/12:30am 11.9 7.5 4.6 61 3.3 S 17 22 9 12 1018.4 1017.8 0.0
08/12:00am 12.3 7.9 4.8 60 3.5 S 17 22 9 12 1018.6 1018.0 0.0
 
Date/Time
CDT
Temp
°C
App
Temp
°C
Dew
Point
°C
Rel
Hum
%
Delta-T
°C
Wind Press
QNH
hPa
Press
MSL
hPa
Rain since
9am
mm
Dir  Spd
km/h
Gust
km/h
Spd
kts
Gust
kts
07/11:30pm 12.5 7.5 4.5 58 3.7 SSE 20 28 11 15 1018.6 1018.0 0.0
07/11:00pm 13.2 7.5 4.9 57 3.9 SSE 24 32 13 17 1018.4 1017.8 0.0
07/10:30pm 13.5 8.0 5.9 60 3.6 SSE 24 28 13 15 1018.4 1017.8 0.0
07/10:00pm 13.5 8.2 6.6 63 3.3 SSE 24 32 13 17 1018.1 1017.5 0.0
07/09:30pm 13.2 8.2 6.3 63 3.3 S 22 32 12 17 1017.6 1017.1 0.0
07/09:00pm 13.3 7.7 7.3 67 2.9 SSE 26 39 14 21 1017.3 1016.8 0.0
07/08:30pm 13.8 8.0 8.0 68 2.9 SSE 28 37 15 20 1017.0 1016.4 0.0
07/08:00pm 14.6 8.1 8.3 66 3.2 SSE 32 41 17 22 1016.5 1015.9 0.0
07/07:30pm 15.3 8.3 8.5 64 3.5 S 35 44 19 24 1016.1 1015.5 0.0
07/07:00pm 15.6 7.8 8.1 61 3.8 SSE 39 52 21 28 1015.6 1015.0 0.0
07/06:30pm 17.6 10.4 9.2 58 4.4 SSE 37 50 20 27 1015.1 1014.5 0.0
07/06:00pm 16.5 9.1 8.5 59 4.1 SSE 37 50 20 27 1014.8 1014.2 0.0
07/05:38pm 16.9 10.0 8.8 59 4.2 S 35 54 19 29 1014.5 1013.9 0.0
07/05:30pm 17.2 9.9 8.6 57 4.5 S 37 48 20 26 1014.7 1014.1 0.0
07/05:00pm 17.5 10.5 9.9 61 4.0 SSE 37 50 20 27 1014.5 1013.9 0.0
07/04:35pm 18.1 11.1 8.4 53 5.0 SSE 35 54 19 29 1014.2 1013.6 0.0
07/04:30pm 19.4 12.8 8.4 49 5.8 SSE 33 44 18 24 1014.1 1013.5 0.0
07/04:00pm 18.8 11.7 7.9 49 5.6 SSE 35 50 19 27 1014.0 1013.4 0.0
07/03:46pm 19.2 12.6 7.6 47 6.0 SSE 32 52 17 28 1013.9 1013.3 0.0
07/03:30pm 19.0 13.0 7.1 46 6.1 S 28 41 15 22 1013.9 1013.3 0.0
07/03:00pm 20.3 13.8 8.0 45 6.4 SSE 32 46 17 25 1013.8 1013.2 0.0
07/02:30pm 20.2 13.6 7.6 44 6.5 SSE 32 44 17 24 1013.7 1013.1 0.0
07/02:00pm 19.0 12.4 7.8 48 5.8 SSE 32 44 17 24 1013.7 1013.1 0.0
07/01:30pm 18.7 12.3 6.9 46 6.0 SSE 30 41 16 22 1013.8 1013.2 0.0
07/01:01pm 19.6 13.1 6.4 42 6.7 SSE 30 63 16 34 1013.6 1013.0 0.0
07/01:00pm 19.8 13.4 6.9 43 6.6 SSE 30 39 16 21 1013.6 1013.0 0.0
07/12:30pm 19.4 12.5 6.5 43 6.5 S 32 46 17 25 1013.6 1013.0 0.0
07/12:00pm 20.5 13.7 6.8 41 7.0 SSE 32 46 17 25 1013.6 1013.0 0.0
07/11:30am 18.8 11.9 6.6 45 6.1 S 32 48 17 26 1013.4 1012.8 0.0
07/11:00am 17.5 10.7 6.7 49 5.4 S 32 46 17 25 1013.3 1012.7 0.0
07/10:30am 17.6 11.3 7.4 51 5.2 SSW 30 37 16 20 1013.1 1012.5 0.0
07/10:00am 16.8 10.3 8.0 56 4.5 SSW 32 43 17 23 1013.0 1012.4 0.0
07/09:30am 17.5 12.6 8.4 55 4.7 S 24 39 13 21 1012.8 1012.2 0.0

Other formats

Comma delimited format used in spreadsheet applications
http://www.bom.gov.au/fwo/IDS60801/IDS60801.94662.axf

JavaScript Object Notation format (JSON) in row-major order
http://www.bom.gov.au/fwo/IDS60801/IDS60801.94662.json

Data quality

Most of these data are generated automatically and are frequently updated. Quality checks on data are not normally performed. It is possible for incorrect values to appear. Refer to information at About Latest Weather Observations and please check the disclaimer before using these data.